Time,TemperatureF,DewpointF,PressureIn,WindDirection,WindDirectionDegrees,WindSpeedMPH,WindSpeedGustMPH,Humidity,HourlyPrecipIn,Conditions,Clouds,dailyrainin,SoftwareType,DateUTC
2013-12-30 00:12:00,39.0,38.0,-100.00,SW,229,1.0,2.0,97,0.00,,,2.06,,2013-12-30 05:12:00,
2013-12-30 00:23:00,40.0,38.0,-100.00,WSW,241,4.0,5.0,95,0.00,,,2.03,,2013-12-30 05:23:00,
2013-12-30 00:43:00,40.0,38.0,-100.00,WSW,237,4.0,8.0,95,0.00,,,1.98,,2013-12-30 05:43:00,
2013-12-30 00:53:00,39.0,38.0,-100.00,SSW,205,2.0,3.0,96,0.00,,,1.92,,2013-12-30 05:53:00,
2013-12-30 01:12:00,39.0,38.0,-100.00,SSW,206,3.0,5.0,98,0.00,,,1.88,,2013-12-30 06:12:00,
2013-12-30 01:23:00,39.0,38.0,-100.00,SSW,203,3.0,5.0,99,0.00,,,1.83,,2013-12-30 06:23:00,
2013-12-30 01:43:00,39.0,38.0,-100.00,SSW,192,1.0,2.0,100,0.00,,,1.80,,2013-12-30 06:43:00,
2013-12-30 01:53:00,38.0,38.0,-100.00,SSW,209,2.0,2.0,100,0.00,,,1.77,,2013-12-30 06:53:00,
2013-12-30 02:11:00,38.0,38.0,-100.00,SSW,206,2.0,3.0,100,0.00,,,1.73,,2013-12-30 07:11:00,
2013-12-30 02:22:00,38.0,38.0,-100.00,SSW,212,2.0,2.0,100,0.00,,,1.65,,2013-12-30 07:22:00,
2013-12-30 02:42:00,38.0,38.0,-100.00,SW,217,2.0,3.0,100,0.00,,,1.58,,2013-12-30 07:42:00,
2013-12-30 02:52:00,39.0,39.0,-100.00,SW,227,3.0,6.0,100,0.00,,,1.50,,2013-12-30 07:52:00,
2013-12-30 03:11:00,39.0,39.0,-100.00,SW,219,5.0,9.0,100,0.00,,,1.43,,2013-12-30 08:11:00,
2013-12-30 03:22:00,39.0,39.0,-100.00,SW,217,4.0,8.0,100,0.00,,,1.35,,2013-12-30 08:22:00,
2013-12-30 03:42:00,39.0,39.0,-100.00,SSW,202,3.0,6.0,100,0.00,,,1.28,,2013-12-30 08:42:00,
2013-12-30 03:52:00,38.0,38.0,-100.00,SW,234,5.0,6.0,100,0.00,,,1.21,,2013-12-30 08:52:00,
2013-12-30 04:11:00,38.0,38.0,-100.00,SW,234,5.0,7.0,100,0.00,,,1.17,,2013-12-30 09:11:00,
2013-12-30 04:22:00,38.0,38.0,-100.00,SSW,209,4.0,8.0,100,0.00,,,1.14,,2013-12-30 09:22:00,
2013-12-30 04:43:00,38.0,38.0,-100.00,SW,223,4.0,7.0,100,0.00,,,1.14,,2013-12-30 09:43:00,
2013-12-30 04:53:00,38.0,38.0,-100.00,SW,224,4.0,7.0,100,0.00,,,1.13,,2013-12-30 09:53:00,
2013-12-30 05:12:00,38.0,38.0,-100.00,SW,227,5.0,7.0,100,0.10,,,1.07,,2013-12-30 10:12:00,
2013-12-30 05:23:00,39.0,39.0,-100.00,SW,224,3.0,5.0,100,0.00,,,1.02,,2013-12-30 10:23:00,
2013-12-30 05:43:00,38.0,38.0,-100.00,WSW,244,4.0,6.0,100,0.00,,,0.94,,2013-12-30 10:43:00,
2013-12-30 05:53:00,38.0,38.0,-100.00,WSW,253,2.0,4.0,100,0.17,,,0.89,,2013-12-30 10:53:00,
2013-12-30 06:12:00,38.0,38.0,-100.00,East,89,1.0,2.0,100,0.14,,,0.85,,2013-12-30 11:12:00,
2013-12-30 06:22:00,36.0,36.0,-100.00,West,267,4.0,9.0,100,0.03,,,0.79,,2013-12-30 11:22:00,
2013-12-30 06:43:00,36.0,36.0,-100.00,WSW,257,3.0,5.0,100,0.00,,,0.72,,2013-12-30 11:43:00,
2013-12-30 06:53:00,36.0,36.0,-100.00,NW,311,3.0,7.0,100,0.00,,,0.67,,2013-12-30 11:53:00,
2013-12-30 07:12:00,36.0,36.0,-100.00,NE,35,2.0,3.0,100,0.00,,,0.61,,2013-12-30 12:12:00,
2013-12-30 07:22:00,35.0,35.0,-100.00,NNW,343,2.0,4.0,100,0.00,,,0.57,,2013-12-30 12:22:00,
2013-12-30 07:42:00,35.0,35.0,-100.00,ESE,103,3.0,6.0,100,0.00,,,0.55,,2013-12-30 12:42:00,
2013-12-30 07:52:00,35.0,35.0,-100.00,ESE,104,2.0,4.0,100,0.00,,,0.52,,2013-12-30 12:52:00,
2013-12-30 08:12:00,34.0,34.0,-100.00,SSE,164,1.0,2.0,100,0.00,,,0.47,,2013-12-30 13:12:00,
2013-12-30 08:22:00,34.0,34.0,-100.00,ESE,104,3.0,6.0,100,0.00,,,0.41,,2013-12-30 13:22:00,
2013-12-30 08:42:00,33.0,33.0,-100.00,ESE,102,2.0,5.0,100,0.00,,,0.37,,2013-12-30 13:42:00,
2013-12-30 08:52:00,33.0,33.0,-100.00,East,93,2.0,7.0,100,0.00,,,0.34,,2013-12-30 13:52:00,
2013-12-30 09:12:00,33.0,33.0,-100.00,ESE,103,2.0,6.0,100,0.00,,,0.31,,2013-12-30 14:12:00,
2013-12-30 09:22:00,33.0,33.0,-100.00,WSW,256,2.0,4.0,100,0.00,,,0.30,,2013-12-30 14:22:00,
2013-12-30 09:42:00,33.0,32.0,-100.00,East,85,5.0,6.0,100,0.00,,,0.30,,2013-12-30 14:42:00,
2013-12-30 09:52:00,32.0,32.0,-100.00,East,85,5.0,8.0,99,0.00,,,0.30,,2013-12-30 14:52:00,
2013-12-30 10:11:00,32.0,32.0,-100.00,East,90,3.0,6.0,99,0.00,,,0.29,,2013-12-30 15:11:00,
2013-12-30 10:22:00,32.0,32.0,-100.00,ENE,76,4.0,7.0,99,0.00,,,0.27,,2013-12-30 15:22:00,
2013-12-30 10:43:00,32.0,32.0,-100.00,ESE,103,3.0,5.0,99,0.00,,,0.26,,2013-12-30 15:43:00,
2013-12-30 10:54:00,32.0,32.0,-100.00,SE,127,4.0,5.0,99,0.00,,,0.26,,2013-12-30 15:54:00,
2013-12-30 11:13:00,32.0,32.0,-100.00,East,93,4.0,7.0,99,0.00,,,0.26,,2013-12-30 16:13:00,
2013-12-30 11:23:00,32.0,32.0,-100.00,ESE,103,5.0,6.0,100,0.00,,,0.24,,2013-12-30 16:23:00,
2013-12-30 11:43:00,32.0,32.0,-100.00,East,85,2.0,4.0,100,0.00,,,0.21,,2013-12-30 16:43:00,
2013-12-30 11:53:00,32.0,32.0,-100.00,ESE,114,4.0,7.0,100,0.00,,,0.17,,2013-12-30 16:53:00,
2013-12-30 12:12:00,32.0,32.0,-100.00,SE,130,3.0,6.0,100,0.00,,,0.13,,2013-12-30 17:12:00,
2013-12-30 12:22:00,31.0,31.0,-100.00,South,176,2.0,4.0,98,0.00,,,0.10,,2013-12-30 17:22:00,
2013-12-30 12:43:00,32.0,32.0,-100.00,SW,215,0.0,2.0,99,0.00,,,0.09,,2013-12-30 17:43:00,
2013-12-30 12:52:00,32.0,32.0,-100.00,SSE,151,2.0,3.0,98,0.00,,,0.09,,2013-12-30 17:52:00,
2013-12-30 13:12:00,32.0,31.0,-100.00,NNE,18,2.0,4.0,95,0.00,,,0.09,,2013-12-30 18:12:00,
2013-12-30 13:22:00,32.0,31.0,-100.00,SE,127,1.0,3.0,95,0.00,,,0.09,,2013-12-30 18:22:00,
2013-12-30 13:43:00,32.0,31.0,-100.00,South,175,1.0,3.0,94,0.00,,,0.09,,2013-12-30 18:43:00,
2013-12-30 13:52:00,33.0,31.0,-100.00,South,189,2.0,2.0,92,0.00,,,0.09,,2013-12-30 18:52:00,
2013-12-30 14:12:00,33.0,30.0,-100.00,SE,130,3.0,5.0,91,0.00,,,0.09,,2013-12-30 19:12:00,
2013-12-30 14:23:00,33.0,30.0,-100.00,SE,128,2.0,4.0,90,0.00,,,0.09,,2013-12-30 19:23:00,
2013-12-30 14:42:00,33.0,30.0,-100.00,SE,145,2.0,2.0,90,0.00,,,0.09,,2013-12-30 19:42:00,
2013-12-30 14:52:00,33.0,29.0,-100.00,SSE,167,1.0,2.0,87,0.00,,,0.09,,2013-12-30 19:52:00,
2013-12-30 15:11:00,33.0,30.0,-100.00,East,89,2.0,4.0,87,0.00,,,0.09,,2013-12-30 20:11:00,
2013-12-30 15:22:00,33.0,29.0,-100.00,East,89,2.0,4.0,86,0.00,,,0.09,,2013-12-30 20:22:00,
2013-12-30 15:42:00,33.0,30.0,-100.00,ESE,117,1.0,3.0,86,0.00,,,0.09,,2013-12-30 20:42:00,
2013-12-30 15:52:00,33.0,29.0,-100.00,WNW,287,0.0,0.0,84,0.00,,,0.09,,2013-12-30 20:52:00,
2013-12-30 16:12:00,34.0,30.0,-100.00,SW,227,2.0,4.0,85,0.00,,,0.09,,2013-12-30 21:12:00,
2013-12-30 16:22:00,34.0,30.0,-100.00,West,270,1.0,2.0,85,0.00,,,0.09,,2013-12-30 21:22:00,
2013-12-30 16:44:00,33.0,29.0,-100.00,North,1,1.0,2.0,84,0.00,,,0.09,,2013-12-30 21:44:00,
2013-12-30 16:54:00,34.0,30.0,-100.00,NE,44,1.0,3.0,85,0.00,,,0.09,,2013-12-30 21:54:00,
2013-12-30 17:13:00,34.0,30.0,-100.00,SSW,202,1.0,2.0,86,0.00,,,0.09,,2013-12-30 22:13:00,
2013-12-30 17:23:00,34.0,30.0,-100.00,South,181,1.0,2.0,87,0.00,,,0.09,,2013-12-30 22:23:00,
2013-12-30 17:43:00,33.0,30.0,-100.00,SE,134,0.0,1.0,87,0.00,,,0.09,,2013-12-30 22:43:00,
2013-12-30 17:53:00,33.0,29.0,-100.00,WSW,241,1.0,1.0,86,0.00,,,0.09,,2013-12-30 22:53:00,
2013-12-30 18:12:00,33.0,30.0,-100.00,SW,219,1.0,2.0,87,0.00,,,0.09,,2013-12-30 23:12:00,
2013-12-30 18:22:00,33.0,30.0,-100.00,SW,232,2.0,2.0,88,0.00,,,0.09,,2013-12-30 23:22:00,
2013-12-30 18:42:00,33.0,30.0,-100.00,SW,219,2.0,3.0,88,0.00,,,0.09,,2013-12-30 23:42:00,
2013-12-30 18:53:00,33.0,30.0,-100.00,SW,229,1.0,2.0,89,0.00,,,0.09,,2013-12-30 23:53:00,
2013-12-30 19:12:00,33.0,30.0,-100.00,SW,232,2.0,3.0,89,0.00,,,0.09,,2013-12-31 00:12:00,
2013-12-30 19:22:00,33.0,29.0,-100.00,WSW,248,3.0,4.0,87,0.00,,,0.09,,2013-12-31 00:22:00,
2013-12-30 19:42:00,33.0,31.0,-100.00,SW,217,0.0,1.0,91,0.00,,,0.09,,2013-12-31 00:42:00,
2013-12-30 19:52:00,33.0,30.0,-100.00,SW,220,2.0,2.0,89,0.00,,,0.09,,2013-12-31 00:52:00,
2013-12-30 20:12:00,33.0,30.0,-100.00,SSW,213,1.0,2.0,91,0.00,,,0.09,,2013-12-31 01:12:00,
2013-12-30 20:22:00,32.0,30.0,-100.00,SSW,213,2.0,4.0,92,0.00,,,0.09,,2013-12-31 01:22:00,
2013-12-30 20:42:00,32.0,31.0,-100.00,South,185,1.0,2.0,94,0.00,,,0.09,,2013-12-31 01:42:00,
2013-12-30 21:12:00,32.0,31.0,-100.00,SSW,192,2.0,4.0,95,0.00,,,0.09,,2013-12-31 02:12:00,
2013-12-30 21:22:00,32.0,31.0,-100.00,SW,224,2.0,3.0,96,0.00,,,0.09,,2013-12-31 02:22:00,
2013-12-30 21:42:00,32.0,31.0,-100.00,SW,233,2.0,4.0,96,0.00,,,0.09,,2013-12-31 02:42:00,
2013-12-30 21:53:00,32.0,31.0,-100.00,SSW,203,2.0,4.0,95,0.00,,,0.09,,2013-12-31 02:53:00,
2013-12-30 22:12:00,32.0,31.0,-100.00,SW,220,2.0,3.0,96,0.00,,,0.09,,2013-12-31 03:12:00,
2013-12-30 22:22:00,32.0,31.0,-100.00,SW,222,2.0,4.0,95,0.00,,,0.09,,2013-12-31 03:22:00,
2013-12-30 22:43:00,32.0,31.0,-100.00,South,178,0.0,1.0,95,0.00,,,0.09,,2013-12-31 03:43:00,
2013-12-30 22:54:00,32.0,31.0,-100.00,SSW,208,1.0,3.0,96,0.00,,,0.09,,2013-12-31 03:54:00,
2013-12-30 23:13:00,32.0,31.0,-100.00,SSW,213,2.0,3.0,97,0.00,,,0.09,,2013-12-31 04:13:00,
2013-12-30 23:23:00,32.0,31.0,-100.00,SW,219,2.0,4.0,96,0.00,,,0.09,,2013-12-31 04:23:00,
2013-12-30 23:43:00,32.0,30.0,-100.00,SSW,213,3.0,4.0,95,0.00,,,0.09,,2013-12-31 04:43:00,
2013-12-30 23:53:00,32.0,31.0,-100.00,SW,236,2.0,3.0,95,0.00,,,0.09,,2013-12-31 04:53:00,